createdAt,value
2018-12-13T00:01:04.759Z,5.71
2018-12-13T00:03:33.183Z,6.02
2018-12-13T00:06:02.171Z,5.95
2018-12-13T00:08:30.623Z,5.99
2018-12-13T00:10:58.495Z,5.99
2018-12-13T00:13:27.129Z,5.93
2018-12-13T00:15:54.243Z,5.95
2018-12-13T00:18:22.948Z,5.96
2018-12-13T00:20:51.992Z,5.92
2018-12-13T00:23:20.949Z,5.83
2018-12-13T00:25:48.491Z,5.85
2018-12-13T00:28:15.487Z,5.96
2018-12-13T00:30:44.708Z,6.03
2018-12-13T00:33:11.731Z,5.99
2018-12-13T00:38:12.723Z,5.83
2018-12-13T00:40:41.406Z,5.78
2018-12-13T00:43:12.149Z,5.81
2018-12-13T00:48:18.793Z,5.94
2018-12-13T00:50:46.259Z,5.95
2018-12-13T00:53:14.285Z,5.85
2018-12-13T00:55:42.551Z,5.76
2018-12-13T00:58:11.039Z,5.83
2018-12-13T01:03:16.521Z,5.96
2018-12-13T01:05:45.640Z,5.90
2018-12-13T01:08:13.936Z,5.92
2018-12-13T01:10:46.243Z,5.92
2018-12-13T01:13:17.760Z,6.06
2018-12-13T01:15:45.623Z,6.10
2018-12-13T01:18:14.314Z,6.22
2018-12-13T01:23:22.262Z,6.21
2018-12-13T01:25:50.503Z,6.39
2018-12-13T01:28:17.761Z,6.45
2018-12-13T01:33:17.615Z,6.25
2018-12-13T01:35:45.597Z,6.05
2018-12-13T01:38:12.854Z,6.08
2018-12-13T01:40:39.343Z,6.24
2018-12-13T01:43:06.468Z,6.24
2018-12-13T01:45:34.379Z,6.25
2018-12-13T01:48:01.642Z,6.39
2018-12-13T01:50:28.668Z,6.43
2018-12-13T01:52:55.348Z,6.24
2018-12-13T01:55:22.496Z,6.30
2018-12-13T01:57:50.696Z,6.30
2018-12-13T02:00:17.870Z,6.29
2018-12-13T02:02:45.039Z,6.24
2018-12-13T02:05:14.058Z,6.39
2018-12-13T02:07:42.830Z,6.54
2018-12-13T02:10:12.103Z,6.29
2018-12-13T02:12:39.485Z,6.06
2018-12-13T02:15:06.721Z,5.93
2018-12-13T02:17:34.467Z,5.91
2018-12-13T02:20:02.313Z,5.99
2018-12-13T02:22:28.743Z,6.03
2018-12-13T02:24:55.177Z,6.07
2018-12-13T02:27:21.606Z,6.24
2018-12-13T02:29:48.056Z,6.22
2018-12-13T02:32:14.498Z,6.16
2018-12-13T02:34:41.082Z,5.97
2018-12-13T02:37:07.514Z,6.03
2018-12-13T02:39:33.955Z,6.32
2018-12-13T02:42:00.400Z,6.62
2018-12-13T02:44:27.068Z,6.62
2018-12-13T02:46:53.537Z,6.62
2018-12-13T02:49:19.968Z,6.48
2018-12-13T02:51:46.393Z,6.52
2018-12-13T02:54:12.844Z,6.56
2018-12-13T02:56:39.283Z,6.39
2018-12-13T02:59:05.736Z,6.37
2018-12-13T03:01:32.200Z,6.53
2018-12-13T03:03:58.627Z,6.49
2018-12-13T03:09:17.236Z,6.26
2018-12-13T03:11:43.694Z,6.26
2018-12-13T03:14:11.187Z,6.12
2018-12-13T03:16:37.646Z,5.99
2018-12-13T03:19:04.089Z,6.12
2018-12-13T03:21:30.530Z,6.43
2018-12-13T03:23:57.035Z,6.60
2018-12-13T03:26:23.706Z,6.70
2018-12-13T03:28:50.130Z,6.76
2018-12-13T03:31:16.631Z,6.64
2018-12-13T03:33:43.504Z,6.56
2018-12-13T03:36:10.649Z,6.44
2018-12-13T03:38:37.495Z,6.41
2018-12-13T03:41:03.952Z,6.62
2018-12-13T03:43:31.463Z,6.75
2018-12-13T03:45:58.551Z,6.61
2018-12-13T03:48:26.233Z,6.58
2018-12-13T03:50:53.227Z,6.49
2018-12-13T03:53:21.218Z,6.42
2018-12-13T03:55:48.263Z,6.63
2018-12-13T03:58:15.348Z,6.62
2018-12-13T04:00:43.296Z,6.50
2018-12-13T04:03:10.407Z,6.40
2018-12-13T04:05:36.861Z,6.35
2018-12-13T04:08:04.310Z,6.37
2018-12-13T04:10:30.746Z,6.53
2018-12-13T04:12:58.298Z,6.57
2018-12-13T04:15:26.048Z,6.57
2018-12-13T04:17:53.092Z,6.65
2018-12-13T04:20:20.995Z,6.65
2018-12-13T04:22:47.509Z,6.64
2018-12-13T04:25:14.186Z,6.67
2018-12-13T04:27:40.683Z,6.76
2018-12-13T04:30:07.125Z,6.78
2018-12-13T04:32:33.600Z,6.90
2018-12-13T04:35:00.050Z,6.88
2018-12-13T04:37:26.503Z,7.01
2018-12-13T04:39:53.002Z,6.76
2018-12-13T04:42:20.635Z,6.73
2018-12-13T04:44:47.095Z,7.00
2018-12-13T04:47:13.562Z,6.69
2018-12-13T04:52:12.583Z,6.42
2018-12-13T04:54:39.574Z,6.33
2018-12-13T04:57:06.021Z,6.04
2018-12-13T04:59:32.584Z,6.06
2018-12-13T05:01:59.024Z,5.97
2018-12-13T05:04:27.153Z,6.11
2018-12-13T05:06:53.622Z,6.36
2018-12-13T05:09:20.095Z,6.12
2018-12-13T05:11:47.415Z,6.12
2018-12-13T05:14:14.013Z,6.31
2018-12-13T05:16:40.659Z,6.39
2018-12-13T05:19:07.210Z,6.41
2018-12-13T05:21:33.703Z,6.40
2018-12-13T05:24:00.196Z,6.48
2018-12-13T05:26:26.668Z,6.47
2018-12-13T05:28:53.145Z,6.31
2018-12-13T05:33:51.175Z,6.41
2018-12-13T05:36:17.689Z,6.62
2018-12-13T05:38:44.147Z,6.63
2018-12-13T05:41:10.604Z,6.61
2018-12-13T05:43:37.042Z,6.64
2018-12-13T05:46:03.490Z,6.54
2018-12-13T05:48:29.922Z,6.52
2018-12-13T05:50:56.352Z,6.33
2018-12-13T05:53:22.832Z,6.39
2018-12-13T05:55:49.311Z,6.56
2018-12-13T05:58:15.767Z,6.49
2018-12-13T06:00:42.200Z,6.62
2018-12-13T06:03:09.743Z,6.72
2018-12-13T06:05:36.171Z,6.77
2018-12-13T06:08:02.636Z,6.79
2018-12-13T06:10:29.079Z,6.80
2018-12-13T06:12:55.506Z,6.86
2018-12-13T06:15:22.017Z,6.82
2018-12-13T06:17:48.468Z,6.91
2018-12-13T06:20:14.931Z,6.84
2018-12-13T06:22:41.370Z,6.75
2018-12-13T06:25:07.831Z,6.84
2018-12-13T06:27:34.281Z,6.62
2018-12-13T06:30:07.237Z,6.62
2018-12-13T06:32:29.508Z,6.57
2018-12-13T06:34:56.497Z,6.52
2018-12-13T06:37:23.177Z,6.72
2018-12-13T06:39:49.652Z,6.70
2018-12-13T06:42:16.136Z,6.66
2018-12-13T06:44:42.622Z,6.52
2018-12-13T06:47:10.104Z,6.56
2018-12-13T06:49:36.569Z,6.56
2018-12-13T06:52:03.344Z,6.60
2018-12-13T06:54:29.799Z,6.54
2018-12-13T06:56:56.245Z,6.90
2018-12-13T06:59:22.719Z,6.72
2018-12-13T07:01:49.180Z,6.53
2018-12-13T07:04:18.933Z,6.51
2018-12-13T07:06:45.375Z,6.50
2018-12-13T07:09:11.848Z,6.55
2018-12-13T07:11:38.274Z,6.44
2018-12-13T07:16:38.434Z,6.55
2018-12-13T07:19:04.891Z,6.46
2018-12-13T07:21:31.311Z,6.48
2018-12-13T07:23:57.746Z,6.51
2018-12-13T07:26:24.225Z,6.33
2018-12-13T07:28:50.656Z,6.12
2018-12-13T07:31:17.078Z,5.94
2018-12-13T07:33:47.643Z,6.28
2018-12-13T07:36:14.090Z,6.65
2018-12-13T07:38:40.542Z,6.63
2018-12-13T07:41:07.036Z,6.70
2018-12-13T07:43:33.486Z,6.57
2018-12-13T07:45:59.923Z,6.44
2018-12-13T07:48:26.374Z,5.94
2018-12-13T07:50:52.804Z,5.66
2018-12-13T07:53:19.228Z,6.20
2018-12-13T07:55:45.685Z,6.08
2018-12-13T07:58:12.122Z,6.12
2018-12-13T08:00:38.592Z,6.10
2018-12-13T08:03:05.074Z,6.26
2018-12-13T08:05:31.511Z,6.31
2018-12-13T08:07:57.939Z,6.36
2018-12-13T08:10:24.429Z,6.37
2018-12-13T08:12:50.898Z,6.56
2018-12-13T08:15:17.339Z,6.69
2018-12-13T08:25:18.727Z,6.46
2018-12-13T08:27:45.165Z,6.37
2018-12-13T08:30:11.635Z,6.37
2018-12-13T08:32:38.084Z,6.53
2018-12-13T08:35:08.839Z,6.76
2018-12-13T08:37:35.292Z,6.40
2018-12-13T08:40:01.750Z,6.30
2018-12-13T08:42:28.188Z,6.11
2018-12-13T08:44:56.637Z,6.27
2018-12-13T08:47:23.254Z,6.19
2018-12-13T08:49:49.720Z,6.02
2018-12-13T08:52:16.181Z,5.87
2018-12-13T08:54:46.942Z,6.20
2018-12-13T08:57:13.389Z,6.20
2018-12-13T08:59:39.867Z,6.20
2018-12-13T09:02:06.307Z,6.23
2018-12-13T09:04:33.799Z,6.46
2018-12-13T09:07:00.902Z,6.77
2018-12-13T09:09:27.349Z,6.66
2018-12-13T09:11:53.774Z,6.54
2018-12-13T09:14:20.223Z,6.40
2018-12-13T09:16:46.711Z,6.68
2018-12-13T09:19:13.183Z,6.43
2018-12-13T09:21:39.656Z,6.47
2018-12-13T09:24:06.385Z,6.52
2018-12-13T09:26:32.835Z,6.46
2018-12-13T09:28:59.276Z,6.11
2018-12-13T09:31:25.856Z,6.50
2018-12-13T09:33:52.293Z,6.34
2018-12-13T09:36:18.728Z,6.22
2018-12-13T09:38:45.167Z,6.58
2018-12-13T09:41:11.596Z,6.52
2018-12-13T09:43:38.034Z,6.56
2018-12-13T09:46:04.517Z,6.89
2018-12-13T09:48:30.950Z,6.71
2018-12-13T09:50:57.386Z,6.60
2018-12-13T09:53:23.835Z,6.42
2018-12-13T09:55:50.298Z,6.59
2018-12-13T09:58:16.730Z,6.57
2018-12-13T10:00:43.165Z,6.51
2018-12-13T10:03:09.608Z,6.42
2018-12-13T10:05:39.942Z,6.28
2018-12-13T10:08:06.439Z,6.35
2018-12-13T10:10:32.884Z,6.27
2018-12-13T10:12:59.301Z,6.10
2018-12-13T10:15:32.018Z,6.25
2018-12-13T10:17:56.366Z,6.48
2018-12-13T10:20:22.791Z,6.36
2018-12-13T10:22:49.240Z,6.48
2018-12-13T10:25:19.421Z,6.40
2018-12-13T10:27:45.868Z,6.54
2018-12-13T10:30:12.348Z,6.42
2018-12-13T10:32:38.784Z,6.54
2018-12-13T10:35:11.140Z,6.80
2018-12-13T10:37:33.698Z,6.52
2018-12-13T10:40:00.169Z,6.42
2018-12-13T10:42:26.644Z,6.49
2018-12-13T10:44:53.076Z,6.69
2018-12-13T10:47:19.536Z,6.93
2018-12-13T10:49:45.954Z,6.58
2018-12-13T10:52:12.406Z,6.58
2018-12-13T10:54:38.858Z,6.43
2018-12-13T10:57:05.287Z,6.54
2018-12-13T10:59:31.749Z,6.52
2018-12-13T11:01:58.181Z,6.49
2018-12-13T11:04:24.606Z,6.46
2018-12-13T11:06:52.136Z,6.65
2018-12-13T11:09:18.562Z,6.54
2018-12-13T11:11:44.996Z,6.39
2018-12-13T11:14:11.460Z,6.40
2018-12-13T11:19:10.574Z,6.54
2018-12-13T11:21:37.027Z,6.15
2018-12-13T11:24:03.475Z,5.63
2018-12-13T11:26:30.091Z,5.81
2018-12-13T11:28:56.561Z,5.91
2018-12-13T11:31:22.980Z,6.01
2018-12-13T11:33:49.442Z,6.16
2018-12-13T17:48:24.839Z,6.73
2018-12-13T17:50:51.281Z,6.85
2018-12-13T17:53:17.774Z,6.90
2018-12-13T17:55:44.231Z,6.63
2018-12-13T17:58:10.685Z,6.51
2018-12-13T18:00:37.132Z,6.36
2018-12-13T18:03:03.579Z,6.43
2018-12-13T18:05:34.895Z,6.35
2018-12-13T18:08:02.031Z,6.10
2018-12-13T18:13:04.078Z,6.09
2018-12-13T18:18:03.787Z,6.09
2018-12-13T18:20:32.210Z,6.51
2018-12-13T18:22:58.929Z,6.43
2018-12-13T18:25:26.171Z,6.54
2018-12-13T18:27:53.579Z,6.22
2018-12-13T18:30:21.206Z,6.42
2018-12-13T18:32:49.814Z,6.14
2018-12-13T18:35:17.805Z,6.47
2018-12-13T18:37:44.282Z,6.39
2018-12-13T18:40:11.778Z,6.21
2018-12-13T18:42:39.560Z,6.16
2018-12-13T18:45:07.816Z,6.10
2018-12-13T18:47:35.988Z,5.95
2018-12-13T18:50:04.453Z,6.22
2018-12-13T18:52:30.927Z,6.20
2018-12-13T18:54:58.109Z,6.00
2018-12-13T18:57:26.145Z,5.97
2018-12-13T18:59:52.672Z,5.80
2018-12-13T19:02:20.657Z,5.81
2018-12-13T19:04:48.857Z,5.90
2018-12-13T19:07:16.603Z,6.00
2018-12-13T19:09:50.103Z,6.04
2018-12-13T19:12:17.088Z,6.32
2018-12-13T19:14:46.160Z,6.14
2018-12-13T19:17:14.207Z,6.25
2018-12-13T19:19:42.426Z,6.22
2018-12-13T19:22:09.626Z,6.24
2018-12-13T19:24:39.498Z,6.15
2018-12-13T19:27:06.715Z,6.07
2018-12-13T19:29:35.045Z,5.95
2018-12-13T19:32:03.119Z,5.89
2018-12-13T19:34:33.319Z,5.75
2018-12-13T19:37:02.795Z,5.83
2018-12-13T19:39:31.411Z,5.89
2018-12-13T19:41:59.360Z,5.25
2018-12-13T19:44:28.982Z,5.73
2018-12-13T19:46:56.717Z,5.59
2018-12-13T19:49:25.340Z,5.09
2018-12-13T19:51:52.467Z,5.00
2018-12-13T19:54:19.746Z,4.93
2018-12-13T19:56:46.208Z,5.26
2018-12-13T19:59:12.973Z,5.48
2018-12-13T20:01:41.203Z,4.86
2018-12-13T20:04:07.868Z,5.20
2018-12-13T20:06:36.570Z,5.34
2018-12-13T20:09:04.881Z,5.27
2018-12-13T20:11:33.540Z,5.48
2018-12-13T20:14:00.925Z,5.67
2018-12-13T20:16:27.404Z,5.55
2018-12-13T20:18:53.928Z,5.73
2018-12-13T20:21:21.523Z,5.56
2018-12-13T20:23:49.735Z,5.54
2018-12-13T20:26:18.496Z,5.03
2018-12-13T20:31:43.808Z,5.05
2018-12-13T20:34:11.533Z,4.91
2018-12-13T20:36:40.648Z,4.97
2018-12-13T20:39:08.708Z,5.03
2018-12-13T20:41:37.931Z,5.24
2018-12-13T20:44:05.035Z,5.35
2018-12-13T20:46:35.908Z,5.39
2018-12-13T20:49:04.468Z,5.25
2018-12-13T20:51:32.822Z,4.83
2018-12-13T20:53:59.962Z,4.76
2018-12-13T20:56:28.013Z,4.75
2018-12-13T21:01:29.082Z,5.27
2018-12-13T21:03:56.625Z,5.07
2018-12-13T21:06:24.720Z,5.34
2018-12-13T21:08:51.957Z,5.33
2018-12-13T21:11:19.672Z,5.20
2018-12-13T21:13:48.959Z,5.21
2018-12-13T21:16:16.239Z,4.72
2018-12-13T21:18:42.754Z,4.70
2018-12-13T21:21:11.097Z,4.70
2018-12-13T21:23:37.966Z,5.20
2018-12-13T21:26:07.818Z,5.30
2018-12-13T21:49:58.402Z,3.73
2018-12-13T21:52:26.438Z,3.91
2018-12-13T21:54:54.299Z,4.12
2018-12-13T21:57:22.811Z,4.38
2018-12-13T21:59:51.460Z,4.51
2018-12-13T22:02:21.850Z,4.70
2018-12-13T22:04:51.276Z,4.87
2018-12-13T22:07:20.910Z,4.81
2018-12-13T22:09:49.321Z,4.65
2018-12-13T22:12:17.768Z,5.31
2018-12-13T22:14:46.273Z,5.39
2018-12-13T22:17:14.898Z,5.50
2018-12-13T22:19:43.199Z,5.84
2018-12-13T22:22:11.693Z,5.75
2018-12-13T22:24:40.196Z,5.58
2018-12-13T22:27:08.671Z,5.38
2018-12-13T22:29:37.163Z,5.54
2018-12-13T22:32:05.628Z,5.12
2018-12-13T22:34:34.084Z,5.08
2018-12-13T22:37:01.398Z,5.15
2018-12-13T22:39:28.017Z,5.37
2018-12-13T22:41:58.608Z,5.54
2018-12-13T22:44:27.064Z,5.27
2018-12-13T22:46:57.522Z,5.38
2018-12-13T22:49:25.987Z,5.49
2018-12-13T22:51:55.494Z,5.59
2018-12-13T22:54:27.038Z,5.55
2018-12-13T22:56:55.514Z,5.64
2018-12-13T22:59:23.956Z,5.64
2018-12-13T23:01:52.483Z,5.77
2018-12-13T23:06:53.503Z,5.29
2018-12-13T23:09:20.995Z,5.15
2018-12-13T23:11:49.505Z,5.47
2018-12-13T23:14:17.507Z,5.30
2018-12-13T23:16:45.353Z,4.81
2018-12-13T23:19:11.825Z,4.68
2018-12-13T23:21:38.306Z,4.89
2018-12-13T23:24:05.491Z,4.60
2018-12-13T23:26:32.003Z,4.54
2018-12-13T23:28:59.560Z,4.89
2018-12-13T23:31:28.100Z,5.20
2018-12-13T23:33:56.538Z,5.21
2018-12-13T23:36:26.017Z,5.28
2018-12-13T23:38:53.528Z,4.96
2018-12-13T23:41:21.997Z,5.16
2018-12-13T23:43:50.495Z,5.38
2018-12-13T23:46:18.976Z,4.65
2018-12-13T23:48:46.379Z,4.57
2018-12-13T23:51:13.873Z,4.96
2018-12-13T23:53:41.310Z,5.17
2018-12-13T23:56:08.773Z,5.42
2018-12-13T23:58:36.198Z,5.44
